Time;durP1;ratioP1;P1;durP2;ratioP2;P2;SDS_P1;SDS_P2;PMS_P1;PMS_P2;Temp;Humidity;BMP_temperature;BMP_pressure;BME280_temperature;BME280_humidity;BME280_pressure;Samples;Min_cycle;Max_cycle;Signal;HPM_P1;HPM_P2
2023/04/25 00:00:56;;;;;;;10.63;10.03;;;;;;;10.58;100.00;92102.03;5114976;28;20219;-80
2023/04/25 00:03:22;;;;;;;11.23;10.53;;;;;;;10.45;100.00;92076.72;5113508;28;20224;-81
2023/04/25 00:05:47;;;;;;;11.83;11.13;;;;;;;10.31;100.00;92052.44;5113985;28;20307;-80
2023/04/25 00:08:13;;;;;;;10.90;10.20;;;;;;;10.44;100.00;92046.47;5113595;28;20208;-81
2023/04/25 00:10:38;;;;;;;10.73;10.13;;;;;;;10.51;100.00;92059.88;5124378;28;20208;-81
2023/04/25 00:13:04;;;;;;;10.57;9.97;;;;;;;10.52;100.00;92050.97;5120907;28;20192;-80
2023/04/25 00:15:32;;;;;;;10.13;9.40;;;;;;;10.63;100.00;92065.38;5115691;28;20220;-81
2023/04/25 00:17:58;;;;;;;10.20;9.70;;;;;;;10.37;100.00;92040.06;5099870;28;20181;-82
2023/04/25 00:20:24;;;;;;;9.47;8.90;;;;;;;10.62;100.00;92058.63;5119764;28;20270;-80
2023/04/25 00:22:50;;;;;;;9.03;8.63;;;;;;;10.79;100.00;92047.56;5113550;28;20188;-80
2023/04/25 00:25:16;;;;;;;8.90;8.50;;;;;;;10.75;100.00;92033.56;5119118;28;20215;-80
2023/04/25 00:27:41;;;;;;;8.67;8.27;;;;;;;10.78;100.00;92035.59;5113299;28;20248;-81
2023/04/25 00:30:07;;;;;;;8.90;8.50;;;;;;;10.36;100.00;91994.19;5123613;28;20233;-80
2023/04/25 00:32:33;;;;;;;8.93;8.53;;;;;;;10.64;100.00;92025.19;5120987;28;20185;-80
2023/04/25 00:34:59;;;;;;;7.47;7.20;;;;;;;10.57;100.00;92016.97;5113771;28;20220;-80
2023/04/25 00:37:24;;;;;;;8.27;7.97;;;;;;;10.35;100.00;91984.81;5114201;28;20193;-80
2023/04/25 00:39:50;;;;;;;7.63;7.37;;;;;;;10.61;100.00;92020.53;5114809;28;20285;-80
2023/04/25 00:42:16;;;;;;;8.57;8.27;;;;;;;10.54;100.00;91973.19;5110270;28;20174;-80
2023/04/25 00:44:43;;;;;;;8.27;7.93;;;;;;;10.57;100.00;91987.47;5113483;28;20184;-80
2023/04/25 00:47:08;;;;;;;9.37;8.87;;;;;;;10.72;100.00;92000.22;5115760;28;20180;-81
2023/04/25 00:49:34;;;;;;;11.43;10.80;;;;;;;10.58;100.00;92015.91;5112656;28;20204;-74
2023/04/25 00:52:00;;;;;;;12.63;11.80;;;;;;;10.83;100.00;91998.94;5113617;28;20264;-74
2023/04/25 00:54:25;;;;;;;12.60;11.60;;;;;;;10.68;100.00;91994.81;5114222;28;20173;-74
2023/04/25 00:56:52;;;;;;;12.63;11.60;;;;;;;10.63;100.00;92007.19;5114739;28;20188;-74
2023/04/25 00:59:20;;;;;;;13.27;12.27;;;;;;;10.10;100.00;92019.97;5112747;28;20189;-73
2023/04/25 01:01:45;;;;;;;12.33;11.53;;;;;;;10.20;100.00;92025.00;5114904;28;20207;-74
2023/04/25 01:04:11;;;;;;;12.23;11.33;;;;;;;9.97;100.00;92015.50;5113128;28;20176;-74
2023/04/25 01:06:36;;;;;;;11.70;10.93;;;;;;;10.13;100.00;92021.25;5114065;28;20233;-74
2023/04/25 01:09:02;;;;;;;10.93;10.23;;;;;;;10.26;100.00;92012.63;5117168;28;20204;-74
2023/04/25 01:11:28;;;;;;;10.13;9.33;;;;;;;10.13;100.00;92003.78;5113947;28;20235;-74
2023/04/25 01:13:53;;;;;;;9.87;9.27;;;;;;;10.46;100.00;92012.25;5105956;28;20182;-74
2023/04/25 01:16:19;;;;;;;10.23;9.63;;;;;;;10.37;100.00;91993.09;5090597;28;20200;-74
2023/04/25 01:18:45;;;;;;;9.90;9.40;;;;;;;10.35;100.00;91980.34;5098054;28;20196;-74
2023/04/25 01:21:13;;;;;;;10.37;9.67;;;;;;;10.17;100.00;91976.03;5111821;28;20228;-74
2023/04/25 01:23:40;;;;;;;9.50;9.00;;;;;;;10.14;100.00;91987.03;5113962;28;20184;-74
2023/04/25 01:26:06;;;;;;;9.53;8.93;;;;;;;10.40;100.00;91982.88;5118881;28;20219;-74
2023/04/25 01:28:33;;;;;;;11.23;10.30;;;;;;;10.31;100.00;91994.28;5103658;28;20216;-74
2023/04/25 01:30:59;;;;;;;10.77;9.97;;;;;;;10.48;100.00;91997.84;5110082;28;20219;-74
2023/04/25 01:33:24;;;;;;;10.30;9.70;;;;;;;10.26;100.00;91992.53;5115013;28;20226;-74
2023/04/25 01:35:50;;;;;;;10.03;9.33;;;;;;;10.38;100.00;91986.84;5112981;28;20226;-74
2023/04/25 01:38:16;;;;;;;9.80;9.03;;;;;;;10.36;100.00;91971.47;5111839;28;20203;-75
2023/04/25 01:40:41;;;;;;;11.10;10.40;;;;;;;10.37;100.00;91995.72;5122747;28;20225;-74
2023/04/25 01:43:10;;;;;;;12.00;11.10;;;;;;;10.18;100.00;92000.28;5114768;28;20169;-74
2023/04/25 01:45:39;;;;;;;12.27;11.27;;;;;;;10.19;100.00;91997.38;5111450;28;20223;-73
2023/04/25 01:48:05;;;;;;;14.70;13.50;;;;;;;10.07;100.00;91993.69;5111378;28;20212;-74
2023/04/25 01:50:30;;;;;;;15.43;13.97;;;;;;;10.20;100.00;91998.13;5112930;28;20288;-74
2023/04/25 01:52:56;;;;;;;16.83;13.97;;;;;;;10.16;100.00;92002.41;5117069;28;20183;-73
2023/04/25 01:55:22;;;;;;;14.90;13.63;;;;;;;10.22;100.00;92007.25;5120677;28;20245;-74
2023/04/25 01:57:47;;;;;;;17.13;15.57;;;;;;;10.08;100.00;91996.03;5111280;28;20177;-74
2023/04/25 02:00:13;;;;;;;17.47;15.77;;;;;;;10.31;100.00;92015.94;5110981;28;20224;-74
2023/04/25 02:02:38;;;;;;;16.60;14.83;;;;;;;10.03;100.00;92013.56;5115462;28;20224;-74
2023/04/25 02:05:04;;;;;;;17.03;15.60;;;;;;;10.32;100.00;92006.28;5114927;28;20284;-74
2023/04/25 02:07:30;;;;;;;19.53;17.33;;;;;;;10.11;100.00;91999.88;5121471;28;20756;-74
2023/04/25 02:09:55;;;;;;;18.23;16.53;;;;;;;10.28;100.00;92006.06;5115556;28;20220;-74
2023/04/25 02:12:20;;;;;;;17.20;15.43;;;;;;;10.35;100.00;91990.03;5116171;28;20188;-74
2023/04/25 02:14:46;;;;;;;16.00;14.40;;;;;;;10.28;100.00;91982.59;5110735;28;20240;-74
2023/04/25 02:17:12;;;;;;;18.23;16.43;;;;;;;10.01;100.00;92002.66;5117244;28;20207;-75
2023/04/25 02:19:38;;;;;;;19.73;17.47;;;;;;;9.94;100.00;91953.50;5117206;28;20217;-74
2023/04/25 02:22:03;;;;;;;18.50;16.50;;;;;;;10.21;100.00;91974.38;5108722;28;20889;-74
2023/04/25 02:24:29;;;;;;;18.10;16.37;;;;;;;10.33;100.00;91969.44;5119763;28;20187;-74
2023/04/25 02:26:55;;;;;;;17.83;16.23;;;;;;;10.14;100.00;91958.34;5115193;28;21201;-74
2023/04/25 02:29:21;;;;;;;19.43;17.47;;;;;;;9.86;100.00;91972.44;5127997;28;20204;-75
2023/04/25 02:31:46;;;;;;;19.30;17.17;;;;;;;9.88;100.00;91959.88;5112098;28;20238;-74
2023/04/25 02:34:12;;;;;;;17.40;15.77;;;;;;;9.75;100.00;91950.22;5125052;28;20188;-78
2023/04/25 02:36:37;;;;;;;18.67;16.70;;;;;;;9.53;100.00;91952.69;5120522;28;20245;-76
2023/04/25 02:39:02;;;;;;;19.07;17.20;;;;;;;9.90;100.00;91957.75;5123957;28;20173;-77
2023/04/25 02:41:28;;;;;;;16.43;14.77;;;;;;;9.97;100.00;91957.34;5110249;28;20287;-76
2023/04/25 02:43:54;;;;;;;16.17;14.77;;;;;;;9.65;100.00;91945.19;5127459;28;20239;-77
2023/04/25 02:46:19;;;;;;;22.77;16.37;;;;;;;9.72;100.00;91938.53;5119521;28;20234;-76
2023/04/25 02:48:45;;;;;;;16.07;14.67;;;;;;;9.87;100.00;91958.31;5122435;28;20229;-77
2023/04/25 02:51:10;;;;;;;15.90;14.40;;;;;;;9.79;100.00;91957.16;5115858;28;20219;-76
2023/04/25 02:53:36;;;;;;;13.67;12.60;;;;;;;9.62;100.00;91930.13;5116131;28;20221;-76
2023/04/25 02:56:01;;;;;;;13.77;12.57;;;;;;;9.61;100.00;91928.59;5104736;28;20243;-77
2023/04/25 02:58:27;;;;;;;14.53;13.23;;;;;;;9.61;100.00;91946.81;5090112;28;20210;-77
2023/04/25 03:00:52;;;;;;;21.43;19.80;;;;;;;9.37;100.00;91949.59;5110166;28;20287;-77
2023/04/25 03:03:21;;;;;;;14.80;13.60;;;;;;;9.48;100.00;91940.53;5126573;28;20218;-76
2023/04/25 03:05:50;;;;;;;13.10;12.17;;;;;;;9.32;100.00;91944.44;5129461;28;21220;-77
2023/04/25 03:08:15;;;;;;;14.30;13.23;;;;;;;9.29;100.00;91926.03;5123231;28;20223;-76
2023/04/25 03:10:41;;;;;;;13.83;12.80;;;;;;;9.29;100.00;91920.84;5119276;28;20767;-77
2023/04/25 03:13:06;;;;;;;13.40;12.40;;;;;;;9.43;100.00;91922.38;5107231;28;20249;-76
2023/04/25 03:15:31;;;;;;;13.87;12.87;;;;;;;9.44;100.00;91903.09;5105466;28;20311;-77
2023/04/25 03:17:57;;;;;;;13.77;12.83;;;;;;;9.62;100.00;91914.47;5095344;28;20175;-76
2023/04/25 03:20:22;;;;;;;13.57;12.57;;;;;;;9.54;100.00;91918.53;5109170;28;20219;-76
2023/04/25 03:22:48;;;;;;;15.70;14.37;;;;;;;9.53;100.00;91919.59;5097033;28;20764;-76
2023/04/25 03:25:13;;;;;;;16.00;14.37;;;;;;;9.50;100.00;91942.84;5103957;28;20220;-76
2023/04/25 03:27:38;;;;;;;15.73;14.43;;;;;;;9.49;100.00;91923.84;5114222;28;20195;-77
2023/04/25 03:30:05;;;;;;;16.10;14.70;;;;;;;9.54;100.00;91923.00;5121802;28;20218;-77
2023/04/25 03:32:30;;;;;;;14.83;13.53;;;;;;;9.69;100.00;91914.88;5122036;28;20185;-81
2023/04/25 03:34:55;;;;;;;15.83;14.30;;;;;;;9.89;100.00;91931.97;5110467;28;20239;-76
2023/04/25 03:37:21;;;;;;;15.07;13.77;;;;;;;9.97;100.00;91932.06;5123776;28;20270;-71
2023/04/25 03:39:46;;;;;;;15.90;14.47;;;;;;;10.00;100.00;91938.53;5120364;28;20223;-71
2023/04/25 03:42:12;;;;;;;14.87;13.37;;;;;;;10.07;100.00;91944.91;5129169;28;20212;-67
2023/04/25 03:44:37;;;;;;;16.10;14.70;;;;;;;9.92;100.00;91942.59;5102538;28;20287;-73
2023/04/25 03:47:02;;;;;;;17.17;15.47;;;;;;;9.82;100.00;91940.94;5116274;28;20195;-74
2023/04/25 03:49:28;;;;;;;17.37;15.60;;;;;;;9.89;100.00;91934.56;5107746;28;20216;-70
2023/04/25 03:51:53;;;;;;;14.97;13.77;;;;;;;10.09;100.00;91934.97;5105788;28;20192;-73
2023/04/25 03:54:18;;;;;;;14.47;13.37;;;;;;;10.20;100.00;91931.09;5110746;28;20200;-75
2023/04/25 03:56:44;;;;;;;13.77;12.77;;;;;;;10.45;100.00;91927.19;5113258;28;20227;-74
2023/04/25 03:59:09;;;;;;;13.40;12.50;;;;;;;10.37;100.00;91888.75;5114588;28;20177;-74
2023/04/25 04:01:35;;;;;;;14.53;13.53;;;;;;;10.88;100.00;91921.25;5117069;28;20945;-75
2023/04/25 04:04:00;;;;;;;12.27;11.47;;;;;;;11.07;100.00;91919.22;5126469;28;20224;-75
2023/04/25 04:06:26;;;;;;;11.53;10.83;;;;;;;11.41;96.15;91923.13;5127116;28;21054;-73
2023/04/25 04:08:51;;;;;;;11.30;10.43;;;;;;;11.59;93.64;91925.53;5120451;28;20211;-74
2023/04/25 04:11:17;;;;;;;9.90;9.40;;;;;;;11.83;95.11;91912.88;5110591;28;20226;-74
2023/04/25 04:13:42;;;;;;;10.17;9.67;;;;;;;11.78;90.15;91948.88;5104906;28;20193;-75
2023/04/25 04:16:08;;;;;;;10.43;9.83;;;;;;;11.76;92.36;91962.25;5102038;28;20233;-74
2023/04/25 04:18:33;;;;;;;13.10;12.20;;;;;;;12.01;96.44;91964.19;5097608;28;20183;-75
2023/04/25 04:20:59;;;;;;;12.53;11.43;;;;;;;12.06;98.67;91961.41;5105687;28;20219;-76
2023/04/25 04:23:27;;;;;;;13.87;12.87;;;;;;;12.09;100.00;91949.59;5120463;28;20186;-77
2023/04/25 04:25:53;;;;;;;14.07;12.77;;;;;;;12.22;100.00;91957.31;5119132;28;20225;-75
2023/04/25 04:28:19;;;;;;;12.87;11.83;;;;;;;11.88;100.00;91935.50;5114903;28;20239;-81
2023/04/25 04:30:46;;;;;;;10.07;9.47;;;;;;;11.46;83.79;91938.66;5112700;28;20220;-81
2023/04/25 04:33:12;;;;;;;9.10;8.70;;;;;;;11.81;85.88;91948.25;5116340;28;20187;-80
2023/04/25 04:35:38;;;;;;;9.03;8.63;;;;;;;11.38;90.15;91939.41;5114943;28;20215;-81
2023/04/25 04:38:03;;;;;;;15.10;13.73;;;;;;;10.72;100.00;91903.63;5131395;28;20274;-79
2023/04/25 04:40:31;;;;;;;16.13;14.80;;;;;;;10.64;100.00;91920.78;5118934;28;20227;-78
2023/04/25 04:42:57;;;;;;;15.90;14.40;;;;;;;10.86;100.00;91943.50;5121747;28;20790;-78
2023/04/25 04:45:23;;;;;;;16.47;15.10;;;;;;;11.11;100.00;91941.06;5117275;28;20236;-77
2023/04/25 04:47:49;;;;;;;16.10;14.63;;;;;;;11.22;100.00;91926.69;5120117;28;20192;-78
2023/04/25 04:50:15;;;;;;;16.10;14.77;;;;;;;11.61;100.00;91956.59;5127701;28;20222;-83
2023/04/25 04:52:41;;;;;;;16.37;14.73;;;;;;;11.71;100.00;91953.75;5108700;28;20180;-83
2023/04/25 04:55:07;;;;;;;16.60;15.03;;;;;;;11.70;100.00;91936.53;5108209;28;20294;-84
2023/04/25 04:57:34;;;;;;;16.30;14.73;;;;;;;11.78;100.00;91933.91;5111849;28;20184;-79
2023/04/25 05:00:00;;;;;;;16.27;14.87;;;;;;;11.63;100.00;91946.63;5110760;28;20224;-79
2023/04/25 05:02:26;;;;;;;17.67;16.03;;;;;;;11.74;100.00;91946.06;5124322;28;20231;-79
2023/04/25 05:04:52;;;;;;;17.47;15.77;;;;;;;10.94;100.00;91946.16;5101050;28;20240;-80
2023/04/25 05:07:18;;;;;;;19.23;17.23;;;;;;;11.17;100.00;91958.16;5124209;28;20190;-80
2023/04/25 05:09:44;;;;;;;18.47;16.67;;;;;;;11.10;100.00;91965.66;5109052;28;20233;-80
2023/04/25 05:12:09;;;;;;;19.97;17.83;;;;;;;11.15;100.00;91962.94;5110399;28;20195;-79
2023/04/25 05:14:35;;;;;;;22.57;18.60;;;;;;;11.17;100.00;91960.03;5118130;28;20216;-79
2023/04/25 05:17:00;;;;;;;20.50;18.40;;;;;;;10.82;100.00;91942.53;5091981;28;20197;-80
2023/04/25 05:19:26;;;;;;;22.23;19.97;;;;;;;10.88;100.00;91964.88;5088107;28;20191;-77
2023/04/25 05:21:51;;;;;;;20.53;18.30;;;;;;;11.22;100.00;91978.94;5093371;28;20224;-80
2023/04/25 05:24:17;;;;;;;21.40;18.80;;;;;;;10.96;100.00;91959.72;5100522;28;20193;-79
2023/04/25 05:26:42;;;;;;;21.33;18.60;;;;;;;11.27;100.00;91971.00;5094084;28;20213;-77
2023/04/25 05:29:07;;;;;;;20.70;18.53;;;;;;;11.33;100.00;91961.97;5088717;28;20253;-79
2023/04/25 05:31:35;;;;;;;20.07;18.17;;;;;;;11.34;100.00;91960.13;5082483;28;20340;-78
2023/04/25 05:34:01;;;;;;;18.17;16.37;;;;;;;11.47;100.00;91969.72;5086913;28;20189;-78
2023/04/25 05:36:27;;;;;;;17.47;15.83;;;;;;;11.16;100.00;91979.34;5100048;28;21083;-79
2023/04/25 05:38:52;;;;;;;17.47;16.03;;;;;;;10.78;100.00;91952.81;5106182;28;20212;-79
2023/04/25 05:41:18;;;;;;;15.17;13.57;;;;;;;10.92;100.00;91974.44;5099695;28;20221;-78
2023/04/25 05:43:46;;;;;;;17.00;15.50;;;;;;;10.86;100.00;91959.94;5098184;28;20186;-79
2023/04/25 05:46:12;;;;;;;16.90;15.17;;;;;;;11.19;100.00;91990.00;5105539;28;20246;-82
2023/04/25 05:48:38;;;;;;;16.10;14.70;;;;;;;11.50;100.00;91987.44;5110762;28;20244;-80
2023/04/25 05:51:03;;;;;;;14.03;12.93;;;;;;;11.68;100.00;91989.09;5111177;28;20224;-81
2023/04/25 05:53:29;;;;;;;14.57;13.37;;;;;;;11.56;100.00;91980.25;5108236;28;20184;-83
2023/04/25 05:55:54;;;;;;;14.80;13.43;;;;;;;11.99;100.00;92007.41;5104385;28;20224;-83
2023/04/25 05:58:20;;;;;;;14.87;13.67;;;;;;;11.94;100.00;91986.63;5097222;28;20177;-83
2023/04/25 06:00:46;;;;;;;13.70;12.70;;;;;;;11.87;100.00;91997.53;5110522;28;20300;-83
2023/04/25 06:03:13;;;;;;;14.47;13.27;;;;;;;11.85;100.00;91996.25;5109597;28;20215;-83
2023/04/25 06:05:38;;;;;;;14.93;13.43;;;;;;;12.00;100.00;91993.28;5115631;28;20983;-81
2023/04/25 06:08:04;;;;;;;13.93;12.77;;;;;;;12.15;100.00;91974.53;5113287;28;20188;-79
2023/04/25 06:10:29;;;;;;;15.27;14.03;;;;;;;12.58;100.00;91980.66;5109933;28;20349;-80
2023/04/25 06:12:55;;;;;;;18.90;17.20;;;;;;;12.60;100.00;91991.59;5112335;28;20204;-80
2023/04/25 06:15:20;;;;;;;19.50;17.30;;;;;;;12.68;98.99;91996.09;5119829;28;20220;-84
2023/04/25 06:17:45;;;;;;;19.67;17.87;;;;;;;12.88;98.26;91987.66;5104473;28;20195;-82
2023/04/25 06:20:11;;;;;;;17.90;16.20;;;;;;;12.61;98.83;91966.94;5107926;28;20234;-86
2023/04/25 06:22:36;;;;;;;20.17;18.20;;;;;;;12.30;100.00;91961.81;5106240;28;20189;-79
2023/04/25 06:25:04;;;;;;;20.17;18.30;;;;;;;12.29;100.00;91983.06;5107485;28;20222;-78
2023/04/25 06:27:29;;;;;;;21.30;19.27;;;;;;;12.10;100.00;91982.53;5105624;28;20759;-84
2023/04/25 06:29:55;;;;;;;22.93;20.53;;;;;;;12.02;100.00;91996.34;5108980;28;20226;-82
2023/04/25 06:32:20;;;;;;;25.10;21.00;;;;;;;11.98;100.00;91964.03;5109935;28;20252;-82
2023/04/25 06:34:46;;;;;;;25.33;20.90;;;;;;;12.73;100.00;91991.47;5108147;28;20250;-86
2023/04/25 06:37:11;;;;;;;22.07;19.77;;;;;;;12.81;99.15;91982.06;5112117;28;20188;-84
2023/04/25 06:39:37;;;;;;;22.63;20.43;;;;;;;12.94;97.98;91991.66;5106462;28;20211;-83
2023/04/25 06:42:02;;;;;;;20.70;18.67;;;;;;;13.35;98.61;92015.59;5089405;28;20186;-80
2023/04/25 06:44:29;;;;;;;18.57;16.87;;;;;;;14.24;94.14;92023.50;5083735;28;20213;-81
2023/04/25 06:46:54;;;;;;;13.90;12.80;;;;;;;12.96;92.02;92016.47;5082439;28;20191;-75
2023/04/25 06:49:20;;;;;;;18.77;17.20;;;;;;;14.22;91.55;92004.63;5083676;28;20213;-75
2023/04/25 06:51:45;;;;;;;13.23;12.43;;;;;;;14.90;86.32;92020.06;5096570;28;20367;-76
2023/04/25 06:54:10;;;;;;;10.60;9.90;;;;;;;15.40;85.72;92018.22;5085032;28;20251;-76
2023/04/25 06:56:36;;;;;;;13.97;12.97;;;;;;;15.18;81.16;92010.59;5086667;28;20208;-75
2023/04/25 06:59:01;;;;;;;13.20;12.30;;;;;;;15.19;82.49;92000.88;5087139;28;20187;-75
2023/04/25 07:01:27;;;;;;;13.03;12.23;;;;;;;15.25;82.70;92020.63;5087123;28;20251;-75
2023/04/25 07:03:52;;;;;;;12.77;11.77;;;;;;;15.13;82.44;92020.56;5069200;28;20221;-75
2023/04/25 07:06:17;;;;;;;13.47;12.57;;;;;;;15.50;81.59;92002.00;5082304;28;20217;-76
2023/04/25 07:08:43;;;;;;;12.87;11.87;;;;;;;15.32;79.49;92005.84;5081098;28;20217;-74
2023/04/25 07:11:08;;;;;;;13.03;12.13;;;;;;;14.91;80.70;92021.59;5086126;28;20292;-74
2023/04/25 07:13:34;;;;;;;13.33;12.43;;;;;;;14.82;83.41;92001.75;5103653;28;20215;-74
2023/04/25 07:15:59;;;;;;;12.93;11.93;;;;;;;14.40;86.28;91985.09;5102827;28;20280;-74
2023/04/25 07:18:25;;;;;;;12.03;11.13;;;;;;;13.93;91.15;91986.19;5098151;28;20192;-73
2023/04/25 07:20:50;;;;;;;14.33;12.93;;;;;;;14.11;90.97;91998.94;5107262;28;20273;-74
2023/04/25 07:23:15;;;;;;;13.27;12.17;;;;;;;13.99;90.96;91983.06;5107523;28;20224;-74
2023/04/25 07:25:41;;;;;;;14.70;13.40;;;;;;;13.82;90.40;92004.09;5111642;28;20236;-73
2023/04/25 07:28:06;;;;;;;14.23;13.07;;;;;;;13.86;92.84;91991.91;5110317;28;20199;-74
2023/04/25 07:30:32;;;;;;;15.40;13.53;;;;;;;13.79;91.46;91996.84;5112897;28;20873;-74
2023/04/25 07:32:57;;;;;;;14.07;13.00;;;;;;;13.77;90.70;91999.03;5100367;28;20189;-75
2023/04/25 07:35:22;;;;;;;15.70;14.43;;;;;;;13.59;93.82;91991.50;5104723;28;20230;-77
2023/04/25 07:37:48;;;;;;;15.47;13.97;;;;;;;13.65;93.44;92003.38;5113842;28;20199;-76
2023/04/25 07:40:16;;;;;;;16.10;14.80;;;;;;;13.24;96.76;91985.53;5119357;28;20216;-74
2023/04/25 07:42:41;;;;;;;15.33;13.73;;;;;;;13.37;94.22;91979.34;5112887;28;20188;-75
2023/04/25 07:45:07;;;;;;;15.30;14.00;;;;;;;13.58;92.59;91980.25;5107849;28;20236;-73
2023/04/25 07:47:32;;;;;;;16.07;14.10;;;;;;;13.49;92.49;91994.44;5120481;28;20184;-73
2023/04/25 07:49:58;;;;;;;15.10;13.70;;;;;;;13.28;92.91;92004.78;5121273;28;20235;-75
2023/04/25 07:52:23;;;;;;;14.77;13.53;;;;;;;13.49;93.82;92007.56;5126140;28;20203;-73
2023/04/25 07:54:49;;;;;;;15.27;13.73;;;;;;;13.81;91.63;92013.06;5110689;28;20222;-73
2023/04/25 07:57:14;;;;;;;14.80;13.07;;;;;;;13.89;93.08;91991.28;5117536;28;20196;-73
2023/04/25 07:59:40;;;;;;;14.80;13.40;;;;;;;14.28;90.64;91993.66;5111750;28;20172;-75
2023/04/25 08:02:05;;;;;;;14.20;13.07;;;;;;;14.60;89.22;91994.88;5119393;28;20237;-75
2023/04/25 08:04:31;;;;;;;13.83;12.57;;;;;;;14.89;88.06;91975.72;5119195;28;20251;-75
2023/04/25 08:06:56;;;;;;;14.03;12.93;;;;;;;15.29;83.95;92001.25;5108181;27;20176;-73
2023/04/25 08:09:22;;;;;;;16.87;12.87;;;;;;;15.43;82.55;92006.25;5101034;28;20244;-73
2023/04/25 08:11:48;;;;;;;13.37;12.27;;;;;;;15.39;81.69;91985.09;5105256;28;20343;-73
2023/04/25 08:14:13;;;;;;;14.50;13.13;;;;;;;15.67;82.94;91995.84;5107904;28;20227;-73
2023/04/25 08:16:39;;;;;;;14.50;13.10;;;;;;;15.66;82.20;91995.06;5104740;28;20212;-72
2023/04/25 08:19:05;;;;;;;13.90;12.70;;;;;;;15.53;81.75;91995.34;5100196;28;20193;-71
2023/04/25 08:21:31;;;;;;;13.77;12.57;;;;;;;15.42;81.81;91996.84;5113076;28;20216;-72
2023/04/25 08:23:57;;;;;;;13.23;12.13;;;;;;;15.22;81.92;91956.25;5112645;28;20192;-72
2023/04/25 08:26:23;;;;;;;12.77;11.77;;;;;;;15.71;82.17;91981.72;5115720;28;20232;-73
2023/04/25 08:28:49;;;;;;;12.40;11.50;;;;;;;15.98;79.57;91996.16;5104884;28;20212;-73
2023/04/25 08:31:14;;;;;;;13.20;12.00;;;;;;;15.53;78.09;91990.09;5104716;28;20300;-74
2023/04/25 08:33:40;;;;;;;12.40;11.60;;;;;;;15.56;77.53;91978.91;5101012;28;20188;-73
2023/04/25 08:36:06;;;;;;;11.70;10.80;;;;;;;16.04;75.22;91992.22;5108624;28;20301;-73
2023/04/25 08:38:31;;;;;;;11.00;10.37;;;;;;;16.51;74.44;91967.06;5091484;28;20218;-73
2023/04/25 08:40:59;;;;;;;10.30;9.70;;;;;;;17.16;69.80;91965.97;5103929;28;20321;-72
2023/04/25 08:43:25;;;;;;;9.60;8.90;;;;;;;17.03;68.80;91993.47;5109690;28;20295;-73
2023/04/25 08:45:53;;;;;;;9.97;9.07;;;;;;;15.35;73.21;91976.28;5105412;28;20227;-73
2023/04/25 08:48:19;;;;;;;9.57;9.07;;;;;;;15.35;76.28;91984.16;5116661;28;20192;-73
2023/04/25 08:50:55;;;;;;;9.67;9.17;;;;;;;16.43;76.48;91998.75;5104356;28;20223;-73
2023/04/25 08:53:32;;;;;;;10.33;9.57;;;;;;;16.13;70.72;91971.03;5114872;28;20195;-73
2023/04/25 08:55:59;;;;;;;9.43;8.77;;;;;;;15.81;73.30;91962.13;5112275;28;20316;-73
2023/04/25 08:58:25;;;;;;;10.13;9.37;;;;;;;15.41;77.92;91977.66;5115533;28;20222;-72
2023/04/25 09:00:51;;;;;;;9.97;9.20;;;;;;;15.94;74.03;91977.59;5113491;28;20239;-73
2023/04/25 09:03:17;;;;;;;9.77;9.07;;;;;;;15.74;69.60;91940.81;5119466;28;20234;-72
2023/04/25 09:05:43;;;;;;;15.63;10.47;;;;;;;15.70;73.85;91955.72;5106155;28;20286;-73
2023/04/25 09:08:09;;;;;;;10.70;9.77;;;;;;;16.10;71.68;91972.47;5099814;28;20179;-74
2023/04/25 09:10:35;;;;;;;10.10;9.50;;;;;;;16.14;71.95;91962.81;5106757;28;20216;-72
2023/04/25 09:13:14;;;;;;;9.70;9.00;;;;;;;15.80;69.93;91971.09;5107679;28;20195;-71
2023/04/25 09:15:54;;;;;;;11.30;10.50;;;;;;;16.29;68.96;91972.72;5104931;28;20221;-71
2023/04/25 09:18:26;;;;;;;10.97;10.03;;;;;;;15.80;72.26;91973.72;5101721;28;20214;-70
2023/04/25 09:20:57;;;;;;;11.77;10.63;;;;;;;15.81;75.17;91983.94;5109305;28;20216;-71
2023/04/25 09:23:24;;;;;;;12.57;11.37;;;;;;;15.72;76.81;91983.25;5103622;28;20188;-72
2023/04/25 09:25:52;;;;;;;11.63;10.83;;;;;;;16.09;77.40;91973.59;5113177;28;20250;-72
2023/04/25 09:28:27;;;;;;;11.07;10.37;;;;;;;16.32;77.30;91972.06;5100283;28;20208;-68
2023/04/25 09:30:59;;;;;;;11.67;10.77;;;;;;;15.70;75.01;91961.00;5110028;28;20238;-70
2023/04/25 09:33:30;;;;;;;12.17;11.17;;;;;;;15.20;82.14;91960.31;5118893;28;20284;-72
2023/04/25 09:36:05;;;;;;;13.27;12.10;;;;;;;14.60;83.95;91965.22;5100609;28;20224;-74
2023/04/25 09:38:32;;;;;;;13.60;12.50;;;;;;;14.35;93.32;91951.91;5111660;28;20183;-76
2023/04/25 09:40:58;;;;;;;16.77;11.70;;;;;;;14.24;95.25;91966.47;5123447;28;20246;-75
2023/04/25 09:43:24;;;;;;;13.53;12.27;;;;;;;13.41;100.00;91948.81;5125724;28;20243;-76
2023/04/25 09:45:51;;;;;;;12.77;11.87;;;;;;;13.80;99.97;91969.56;5128123;28;20230;-70
2023/04/25 09:48:25;;;;;;;13.80;12.60;;;;;;;14.25;100.00;91968.03;5121400;28;20229;-71
2023/04/25 09:51:02;;;;;;;9.57;9.07;;;;;;;14.00;90.29;91974.13;5119582;27;20231;-71
2023/04/25 09:53:28;;;;;;;11.20;10.17;;;;;;;14.28;93.50;91967.41;5111663;28;20172;-71
2023/04/25 09:55:55;;;;;;;11.03;10.43;;;;;;;14.72;89.70;91971.34;5110134;28;20660;-72
2023/04/25 09:58:21;;;;;;;10.13;9.50;;;;;;;14.06;92.27;91966.84;5126070;28;20274;-71
2023/04/25 10:00:47;;;;;;;10.43;9.73;;;;;;;14.28;89.69;91956.13;5119057;28;20212;-71
2023/04/25 10:03:15;;;;;;;10.00;9.30;;;;;;;15.30;91.64;91965.19;5126714;28;20279;-71
2023/04/25 10:05:41;;;;;;;8.37;7.97;;;;;;;15.59;89.85;91946.69;5128979;28;20234;-71
2023/04/25 10:08:08;;;;;;;10.13;9.30;;;;;;;14.98;83.84;91960.63;5124203;28;20180;-72
2023/04/25 10:10:36;;;;;;;9.10;8.50;;;;;;;14.78;80.83;91953.50;5124795;28;20219;-71
2023/04/25 10:13:04;;;;;;;10.43;9.63;;;;;;;14.95;76.80;91961.28;5122159;28;20197;-71
2023/04/25 10:15:30;;;;;;;9.67;8.97;;;;;;;15.05;85.22;91963.53;5129161;28;20222;-71
2023/04/25 10:17:56;;;;;;;8.73;8.37;;;;;;;15.01;75.41;91967.88;5126763;28;20274;-71
2023/04/25 10:20:22;;;;;;;8.33;7.87;;;;;;;14.78;72.17;91964.03;5112277;28;20231;-71
2023/04/25 10:22:48;;;;;;;8.43;8.03;;;;;;;14.98;73.24;91965.91;5126742;28;20191;-71
2023/04/25 10:25:14;;;;;;;9.23;8.83;;;;;;;15.57;71.03;91956.78;5120419;28;20242;-71
2023/04/25 10:27:40;;;;;;;7.97;7.63;;;;;;;15.21;69.80;91936.34;5119252;28;20191;-71
2023/04/25 10:30:14;;;;;;;8.07;7.77;;;;;;;15.56;69.00;91927.09;5128899;28;20254;-71
2023/04/25 10:32:41;;;;;;;7.47;7.07;;;;;;;15.62;67.35;91935.53;5126520;28;20240;-71
2023/04/25 10:35:11;;;;;;;7.57;7.27;;;;;;;16.21;60.07;91947.25;5116225;28;20220;-71
2023/04/25 10:37:36;;;;;;;8.17;7.87;;;;;;;16.29;63.82;91948.25;5117657;28;20188;-71
2023/04/25 10:40:09;;;;;;;7.77;7.30;;;;;;;16.74;64.43;91941.78;5123825;28;20223;-72
2023/04/25 10:42:35;;;;;;;8.10;7.70;;;;;;;16.62;60.23;91952.34;5120880;28;20247;-71
2023/04/25 10:45:04;;;;;;;8.30;8.00;;;;;;;16.08;57.89;91950.97;5115741;28;20235;-69
2023/04/25 10:47:44;;;;;;;7.87;7.57;;;;;;;16.60;59.00;91962.44;5115948;28;20209;-71
2023/04/25 10:50:11;;;;;;;7.87;7.57;;;;;;;15.73;56.36;91960.34;5122427;28;20225;-71
2023/04/25 10:52:38;;;;;;;7.90;7.60;;;;;;;15.47;58.57;91978.22;5119711;28;20203;-70
2023/04/25 10:55:04;;;;;;;7.37;7.07;;;;;;;14.99;60.63;91972.72;5125464;28;20238;-71
2023/04/25 10:57:33;;;;;;;7.83;7.33;;;;;;;15.45;63.65;91977.78;5126943;28;20183;-71
2023/04/25 11:00:06;;;;;;;8.27;7.97;;;;;;;14.46;67.23;91986.44;5121041;28;20223;-71
2023/04/25 11:02:36;;;;;;;8.53;8.00;;;;;;;13.89;76.76;91959.81;5118458;27;20227;-71
2023/04/25 11:05:02;;;;;;;7.97;7.67;;;;;;;14.21;77.70;91972.34;5128471;28;20246;-71
2023/04/25 11:07:37;;;;;;;8.23;7.93;;;;;;;14.71;80.25;91961.16;5118928;28;20184;-70
2023/04/25 11:10:04;;;;;;;9.03;8.33;;;;;;;15.37;77.55;91966.22;5122493;28;20959;-71
2023/04/25 11:12:31;;;;;;;8.10;7.80;;;;;;;15.96;75.69;91941.19;5122725;28;20191;-71